sensor_id;sensor_type;location;lat;lon;timestamp;temperature;humidity
66119;DHT22;52912;48.564;9.302;2023-12-29T00:00:07;9.99;87.44
66119;DHT22;52912;48.564;9.302;2023-12-29T00:02:33;9.94;87.63
66119;DHT22;52912;48.564;9.302;2023-12-29T00:04:58;9.91;87.54
66119;DHT22;52912;48.564;9.302;2023-12-29T00:07:24;9.99;87.00
66119;DHT22;52912;48.564;9.302;2023-12-29T00:09:49;9.98;87.16
66119;DHT22;52912;48.564;9.302;2023-12-29T00:12:15;10.01;86.70
66119;DHT22;52912;48.564;9.302;2023-12-29T00:14:41;10.02;86.59
66119;DHT22;52912;48.564;9.302;2023-12-29T00:17:07;10.08;86.01
66119;DHT22;52912;48.564;9.302;2023-12-29T00:19:32;10.15;85.80
66119;DHT22;52912;48.564;9.302;2023-12-29T00:21:58;10.22;85.29
66119;DHT22;52912;48.564;9.302;2023-12-29T00:24:23;10.25;85.04
66119;DHT22;52912;48.564;9.302;2023-12-29T00:26:49;10.32;84.41
66119;DHT22;52912;48.564;9.302;2023-12-29T00:29:14;10.30;84.39
66119;DHT22;52912;48.564;9.302;2023-12-29T00:31:41;10.30;84.37
66119;DHT22;52912;48.564;9.302;2023-12-29T00:34:06;10.40;83.96
66119;DHT22;52912;48.564;9.302;2023-12-29T00:36:32;10.46;83.63
66119;DHT22;52912;48.564;9.302;2023-12-29T00:38:57;10.42;83.84
66119;DHT22;52912;48.564;9.302;2023-12-29T00:41:23;10.43;83.60
66119;DHT22;52912;48.564;9.302;2023-12-29T00:43:48;10.37;84.15
66119;DHT22;52912;48.564;9.302;2023-12-29T00:46:14;10.40;83.59
66119;DHT22;52912;48.564;9.302;2023-12-29T00:48:41;10.47;83.32
66119;DHT22;52912;48.564;9.302;2023-12-29T00:51:07;10.50;83.11
66119;DHT22;52912;48.564;9.302;2023-12-29T00:53:34;10.50;82.63
66119;DHT22;52912;48.564;9.302;2023-12-29T00:56:00;10.50;82.74
66119;DHT22;52912;48.564;9.302;2023-12-29T00:58:25;10.52;82.55
66119;DHT22;52912;48.564;9.302;2023-12-29T01:00:51;10.61;82.15
66119;DHT22;52912;48.564;9.302;2023-12-29T01:03:16;10.59;82.24
66119;DHT22;52912;48.564;9.302;2023-12-29T01:05:43;10.57;82.30
66119;DHT22;52912;48.564;9.302;2023-12-29T01:08:08;10.60;82.15
66119;DHT22;52912;48.564;9.302;2023-12-29T01:10:34;10.61;81.94
66119;DHT22;52912;48.564;9.302;2023-12-29T01:12:59;10.63;81.89
66119;DHT22;52912;48.564;9.302;2023-12-29T01:15:25;10.63;81.94
66119;DHT22;52912;48.564;9.302;2023-12-29T01:17:50;10.56;83.00
66119;DHT22;52912;48.564;9.302;2023-12-29T01:20:16;10.42;84.01
66119;DHT22;52912;48.564;9.302;2023-12-29T01:22:42;10.32;84.34
66119;DHT22;52912;48.564;9.302;2023-12-29T01:25:08;10.33;84.23
66119;DHT22;52912;48.564;9.302;2023-12-29T01:27:33;10.26;84.09
66119;DHT22;52912;48.564;9.302;2023-12-29T01:29:59;10.26;84.31
66119;DHT22;52912;48.564;9.302;2023-12-29T01:32:25;10.36;84.05
66119;DHT22;52912;48.564;9.302;2023-12-29T01:34:51;10.35;83.90
66119;DHT22;52912;48.564;9.302;2023-12-29T01:37:17;10.30;83.97
66119;DHT22;52912;48.564;9.302;2023-12-29T01:39:44;10.32;84.26
66119;DHT22;52912;48.564;9.302;2023-12-29T01:42:09;10.25;84.26
66119;DHT22;52912;48.564;9.302;2023-12-29T01:44:35;10.16;84.65
66119;DHT22;52912;48.564;9.302;2023-12-29T01:47:01;10.17;84.64
66119;DHT22;52912;48.564;9.302;2023-12-29T01:49:28;10.09;84.89
66119;DHT22;52912;48.564;9.302;2023-12-29T01:51:55;10.16;84.60
66119;DHT22;52912;48.564;9.302;2023-12-29T01:54:23;10.08;84.95
66119;DHT22;52912;48.564;9.302;2023-12-29T01:56:51;10.05;84.81
66119;DHT22;52912;48.564;9.302;2023-12-29T01:59:19;10.02;85.20
66119;DHT22;52912;48.564;9.302;2023-12-29T02:01:45;10.05;85.24
66119;DHT22;52912;48.564;9.302;2023-12-29T02:04:12;9.99;85.47
66119;DHT22;52912;48.564;9.302;2023-12-29T02:06:39;10.01;85.78
66119;DHT22;52912;48.564;9.302;2023-12-29T02:09:04;9.92;85.84
66119;DHT22;52912;48.564;9.302;2023-12-29T02:11:31;9.94;85.94
66119;DHT22;52912;48.564;9.302;2023-12-29T02:13:58;9.92;86.24
66119;DHT22;52912;48.564;9.302;2023-12-29T02:16:32;9.87;86.57
66119;DHT22;52912;48.564;9.302;2023-12-29T02:19:00;9.80;86.70
66119;DHT22;52912;48.564;9.302;2023-12-29T02:21:29;9.71;87.33
66119;DHT22;52912;48.564;9.302;2023-12-29T02:23:55;9.74;87.38
66119;DHT22;52912;48.564;9.302;2023-12-29T02:26:23;9.67;87.63
66119;DHT22;52912;48.564;9.302;2023-12-29T02:28:56;9.65;87.75
66119;DHT22;52912;48.564;9.302;2023-12-29T02:31:27;9.69;87.92
66119;DHT22;52912;48.564;9.302;2023-12-29T02:33:55;9.69;87.91
66119;DHT22;52912;48.564;9.302;2023-12-29T02:36:22;9.65;88.27
66119;DHT22;52912;48.564;9.302;2023-12-29T02:38:48;9.64;88.41
66119;DHT22;52912;48.564;9.302;2023-12-29T02:41:13;9.61;88.53
66119;DHT22;52912;48.564;9.302;2023-12-29T02:43:40;9.63;88.58
66119;DHT22;52912;48.564;9.302;2023-12-29T02:46:05;9.55;88.76
66119;DHT22;52912;48.564;9.302;2023-12-29T02:48:31;9.57;88.86
66119;DHT22;52912;48.564;9.302;2023-12-29T02:50:57;9.53;88.96
66119;DHT22;52912;48.564;9.302;2023-12-29T02:53:22;9.69;88.72
66119;DHT22;52912;48.564;9.302;2023-12-29T02:55:47;9.67;88.56
66119;DHT22;52912;48.564;9.302;2023-12-29T02:58:13;9.63;88.88
66119;DHT22;52912;48.564;9.302;2023-12-29T03:00:40;9.61;88.74
66119;DHT22;52912;48.564;9.302;2023-12-29T03:03:05;9.60;88.88
66119;DHT22;52912;48.564;9.302;2023-12-29T03:05:31;9.58;88.80
66119;DHT22;52912;48.564;9.302;2023-12-29T03:07:56;9.57;88.91
66119;DHT22;52912;48.564;9.302;2023-12-29T03:10:22;9.57;88.84
66119;DHT22;52912;48.564;9.302;2023-12-29T03:12:47;9.54;88.97
66119;DHT22;52912;48.564;9.302;2023-12-29T03:15:12;9.53;89.02
66119;DHT22;52912;48.564;9.302;2023-12-29T03:17:39;9.60;88.94
66119;DHT22;52912;48.564;9.302;2023-12-29T03:20:06;9.63;88.98
66119;DHT22;52912;48.564;9.302;2023-12-29T03:22:31;9.60;88.94
66119;DHT22;52912;48.564;9.302;2023-12-29T03:24:57;9.54;89.37
66119;DHT22;52912;48.564;9.302;2023-12-29T03:27:22;9.54;89.09
66119;DHT22;52912;48.564;9.302;2023-12-29T03:29:48;9.54;89.03
66119;DHT22;52912;48.564;9.302;2023-12-29T03:32:13;9.50;89.36
66119;DHT22;52912;48.564;9.302;2023-12-29T03:34:40;9.48;89.27
66119;DHT22;52912;48.564;9.302;2023-12-29T03:37:05;9.51;89.37
66119;DHT22;52912;48.564;9.302;2023-12-29T03:39:31;9.42;89.43
66119;DHT22;52912;48.564;9.302;2023-12-29T03:41:56;9.50;89.33
66119;DHT22;52912;48.564;9.302;2023-12-29T03:44:22;9.43;89.42
66119;DHT22;52912;48.564;9.302;2023-12-29T03:46:47;9.47;89.61
66119;DHT22;52912;48.564;9.302;2023-12-29T03:49:13;9.39;89.71
66119;DHT22;52912;48.564;9.302;2023-12-29T03:51:39;9.39;89.89
66119;DHT22;52912;48.564;9.302;2023-12-29T03:54:05;9.39;89.85
66119;DHT22;52912;48.564;9.302;2023-12-29T03:56:30;9.37;90.18
66119;DHT22;52912;48.564;9.302;2023-12-29T03:58:56;9.39;90.47
66119;DHT22;52912;48.564;9.302;2023-12-29T04:01:21;9.39;90.14
66119;DHT22;52912;48.564;9.302;2023-12-29T04:03:47;9.39;90.49
66119;DHT22;52912;48.564;9.302;2023-12-29T04:06:12;9.37;90.69
66119;DHT22;52912;48.564;9.302;2023-12-29T04:08:39;9.44;90.67
66119;DHT22;52912;48.564;9.302;2023-12-29T04:11:05;9.40;90.66
66119;DHT22;52912;48.564;9.302;2023-12-29T04:13:31;9.30;90.91
66119;DHT22;52912;48.564;9.302;2023-12-29T04:15:56;9.40;90.85
66119;DHT22;52912;48.564;9.302;2023-12-29T04:18:23;9.44;90.80
66119;DHT22;52912;48.564;9.302;2023-12-29T04:20:49;9.33;90.99
66119;DHT22;52912;48.564;9.302;2023-12-29T04:23:14;9.35;91.17
66119;DHT22;52912;48.564;9.302;2023-12-29T04:25:41;9.33;91.17
66119;DHT22;52912;48.564;9.302;2023-12-29T04:28:07;9.39;91.19
66119;DHT22;52912;48.564;9.302;2023-12-29T04:30:33;9.35;91.09
66119;DHT22;52912;48.564;9.302;2023-12-29T04:32:58;9.43;91.11
66119;DHT22;52912;48.564;9.302;2023-12-29T04:35:24;9.36;91.29
66119;DHT22;52912;48.564;9.302;2023-12-29T04:37:49;9.32;91.25
66119;DHT22;52912;48.564;9.302;2023-12-29T04:40:15;9.37;91.32
66119;DHT22;52912;48.564;9.302;2023-12-29T04:42:41;9.36;91.23
66119;DHT22;52912;48.564;9.302;2023-12-29T04:45:07;9.36;91.41
66119;DHT22;52912;48.564;9.302;2023-12-29T04:47:33;9.30;91.44
66119;DHT22;52912;48.564;9.302;2023-12-29T04:49:58;9.33;91.64
66119;DHT22;52912;48.564;9.302;2023-12-29T04:52:24;9.36;91.54
66119;DHT22;52912;48.564;9.302;2023-12-29T04:54:49;9.36;91.48
66119;DHT22;52912;48.564;9.302;2023-12-29T04:57:15;9.39;91.40
66119;DHT22;52912;48.564;9.302;2023-12-29T04:59:42;9.30;91.70
66119;DHT22;52912;48.564;9.302;2023-12-29T05:02:07;9.37;91.61
66119;DHT22;52912;48.564;9.302;2023-12-29T05:04:33;9.29;91.77
66119;DHT22;52912;48.564;9.302;2023-12-29T05:06:58;9.35;91.71
66119;DHT22;52912;48.564;9.302;2023-12-29T05:09:25;9.42;91.64
66119;DHT22;52912;48.564;9.302;2023-12-29T05:11:50;9.36;91.78
66119;DHT22;52912;48.564;9.302;2023-12-29T05:14:16;9.33;91.95
66119;DHT22;52912;48.564;9.302;2023-12-29T05:16:42;9.36;91.80
66119;DHT22;52912;48.564;9.302;2023-12-29T05:19:08;9.30;91.86
66119;DHT22;52912;48.564;9.302;2023-12-29T05:21:33;9.47;91.63
66119;DHT22;52912;48.564;9.302;2023-12-29T05:23:59;9.35;91.90
66119;DHT22;52912;48.564;9.302;2023-12-29T05:26:24;9.25;92.14
66119;DHT22;52912;48.564;9.302;2023-12-29T05:28:50;9.27;92.24
66119;DHT22;52912;48.564;9.302;2023-12-29T05:31:15;9.32;92.08
66119;DHT22;52912;48.564;9.302;2023-12-29T05:33:43;9.27;92.30
66119;DHT22;52912;48.564;9.302;2023-12-29T05:36:10;9.30;92.24
66119;DHT22;52912;48.564;9.302;2023-12-29T05:38:36;9.30;92.16
66119;DHT22;52912;48.564;9.302;2023-12-29T05:41:01;9.33;92.20
66119;DHT22;52912;48.564;9.302;2023-12-29T05:43:27;9.27;92.37
66119;DHT22;52912;48.564;9.302;2023-12-29T05:45:53;9.22;92.45
66119;DHT22;52912;48.564;9.302;2023-12-29T05:48:18;9.33;92.39
66119;DHT22;52912;48.564;9.302;2023-12-29T05:50:45;9.26;92.44
66119;DHT22;52912;48.564;9.302;2023-12-29T05:53:11;9.25;92.53
66119;DHT22;52912;48.564;9.302;2023-12-29T05:55:36;9.19;92.80
66119;DHT22;52912;48.564;9.302;2023-12-29T05:58:02;9.18;92.81
66119;DHT22;52912;48.564;9.302;2023-12-29T06:00:27;9.14;92.94
66119;DHT22;52912;48.564;9.302;2023-12-29T06:02:53;9.16;92.89
66119;DHT22;52912;48.564;9.302;2023-12-29T06:05:18;9.19;92.78
66119;DHT22;52912;48.564;9.302;2023-12-29T06:07:45;9.19;92.79
66119;DHT22;52912;48.564;9.302;2023-12-29T06:10:11;9.18;92.96
66119;DHT22;52912;48.564;9.302;2023-12-29T06:12:36;9.18;93.09
66119;DHT22;52912;48.564;9.302;2023-12-29T06:15:02;9.25;92.78
66119;DHT22;52912;48.564;9.302;2023-12-29T06:17:27;9.23;92.85
66119;DHT22;52912;48.564;9.302;2023-12-29T06:19:53;9.26;92.72
66119;DHT22;52912;48.564;9.302;2023-12-29T06:22:18;9.29;92.73
66119;DHT22;52912;48.564;9.302;2023-12-29T06:24:45;9.25;92.96
66119;DHT22;52912;48.564;9.302;2023-12-29T06:27:11;9.23;93.23
66119;DHT22;52912;48.564;9.302;2023-12-29T06:29:37;9.30;92.93
66119;DHT22;52912;48.564;9.302;2023-12-29T06:32:03;9.30;93.17
66119;DHT22;52912;48.564;9.302;2023-12-29T06:34:29;9.30;93.16
66119;DHT22;52912;48.564;9.302;2023-12-29T06:36:54;9.29;93.20
66119;DHT22;52912;48.564;9.302;2023-12-29T06:39:20;9.27;93.55
66119;DHT22;52912;48.564;9.302;2023-12-29T06:41:47;9.25;93.60
66119;DHT22;52912;48.564;9.302;2023-12-29T06:44:12;9.25;93.62
66119;DHT22;52912;48.564;9.302;2023-12-29T06:46:38;9.20;93.85
66119;DHT22;52912;48.564;9.302;2023-12-29T06:49:03;9.19;93.83
66119;DHT22;52912;48.564;9.302;2023-12-29T06:51:29;9.12;94.10
66119;DHT22;52912;48.564;9.302;2023-12-29T06:53:54;9.15;93.96
66119;DHT22;52912;48.564;9.302;2023-12-29T06:56:20;9.12;94.05
66119;DHT22;52912;48.564;9.302;2023-12-29T06:58:47;9.15;94.00
66119;DHT22;52912;48.564;9.302;2023-12-29T07:01:13;9.16;94.50
66119;DHT22;52912;48.564;9.302;2023-12-29T07:03:39;9.12;94.59
66119;DHT22;52912;48.564;9.302;2023-12-29T07:06:04;9.15;94.74
66119;DHT22;52912;48.564;9.302;2023-12-29T07:08:30;9.12;95.19
66119;DHT22;52912;48.564;9.302;2023-12-29T07:10:55;9.19;94.65
66119;DHT22;52912;48.564;9.302;2023-12-29T07:13:21;9.15;94.96
66119;DHT22;52912;48.564;9.302;2023-12-29T07:15:48;9.18;94.82
66119;DHT22;52912;48.564;9.302;2023-12-29T07:18:13;9.14;94.98
66119;DHT22;52912;48.564;9.302;2023-12-29T07:20:39;9.11;95.03
66119;DHT22;52912;48.564;9.302;2023-12-29T07:23:04;9.02;95.21
66119;DHT22;52912;48.564;9.302;2023-12-29T07:25:30;9.01;95.24
66119;DHT22;52912;48.564;9.302;2023-12-29T07:27:55;8.95;95.68
66119;DHT22;52912;48.564;9.302;2023-12-29T07:30:21;8.98;95.48
66119;DHT22;52912;48.564;9.302;2023-12-29T07:32:48;8.93;95.85
66119;DHT22;52912;48.564;9.302;2023-12-29T07:35:13;8.91;95.71
66119;DHT22;52912;48.564;9.302;2023-12-29T07:37:39;8.89;95.98
66119;DHT22;52912;48.564;9.302;2023-12-29T07:40:06;8.87;95.95
66119;DHT22;52912;48.564;9.302;2023-12-29T07:42:31;8.85;95.98
66119;DHT22;52912;48.564;9.302;2023-12-29T07:44:57;8.82;96.04
66119;DHT22;52912;48.564;9.302;2023-12-29T07:47:22;8.85;95.94
66119;DHT22;52912;48.564;9.302;2023-12-29T07:49:49;8.91;95.75
66119;DHT22;52912;48.564;9.302;2023-12-29T07:52:15;8.93;95.68
66119;DHT22;52912;48.564;9.302;2023-12-29T07:54:40;8.95;95.42
66119;DHT22;52912;48.564;9.302;2023-12-29T07:57:05;9.04;95.27
66119;DHT22;52912;48.564;9.302;2023-12-29T07:59:31;9.12;94.71
66119;DHT22;52912;48.564;9.302;2023-12-29T08:01:56;9.19;94.32
66119;DHT22;52912;48.564;9.302;2023-12-29T08:04:22;9.20;94.08
66119;DHT22;52912;48.564;9.302;2023-12-29T08:06:49;9.26;93.94
66119;DHT22;52912;48.564;9.302;2023-12-29T08:09:14;9.30;93.71
66119;DHT22;52912;48.564;9.302;2023-12-29T08:11:40;9.27;93.50
66119;DHT22;52912;48.564;9.302;2023-12-29T08:14:05;9.36;92.97
66119;DHT22;52912;48.564;9.302;2023-12-29T08:16:30;9.50;92.81
66119;DHT22;52912;48.564;9.302;2023-12-29T08:18:56;9.64;92.25
66119;DHT22;52912;48.564;9.302;2023-12-29T08:21:22;9.80;91.93
66119;DHT22;52912;48.564;9.302;2023-12-29T08:23:48;9.94;91.25
66119;DHT22;52912;48.564;9.302;2023-12-29T08:26:14;9.99;91.32
66119;DHT22;52912;48.564;9.302;2023-12-29T08:28:40;9.98;91.52
66119;DHT22;52912;48.564;9.302;2023-12-29T08:31:06;9.95;91.52
66119;DHT22;52912;48.564;9.302;2023-12-29T08:33:32;10.03;91.44
66119;DHT22;52912;48.564;9.302;2023-12-29T08:35:57;10.03;91.29
66119;DHT22;52912;48.564;9.302;2023-12-29T08:38:22;10.23;90.84
66119;DHT22;52912;48.564;9.302;2023-12-29T08:40:49;10.29;91.03
66119;DHT22;52912;48.564;9.302;2023-12-29T08:43:15;10.30;90.53
66119;DHT22;52912;48.564;9.302;2023-12-29T08:45:40;10.39;90.11
66119;DHT22;52912;48.564;9.302;2023-12-29T08:48:06;10.50;90.03
66119;DHT22;52912;48.564;9.302;2023-12-29T08:50:31;10.52;89.77
66119;DHT22;52912;48.564;9.302;2023-12-29T08:52:57;10.49;90.07
66119;DHT22;52912;48.564;9.302;2023-12-29T08:55:22;10.56;89.56
66119;DHT22;52912;48.564;9.302;2023-12-29T08:57:50;10.70;89.28
66119;DHT22;52912;48.564;9.302;2023-12-29T09:00:15;10.75;89.27
66119;DHT22;52912;48.564;9.302;2023-12-29T09:02:41;10.77;89.33
66119;DHT22;52912;48.564;9.302;2023-12-29T09:05:07;10.80;88.88
66119;DHT22;52912;48.564;9.302;2023-12-29T09:07:33;10.92;88.74
66119;DHT22;52912;48.564;9.302;2023-12-29T09:09:58;10.97;88.90
66119;DHT22;52912;48.564;9.302;2023-12-29T09:12:23;11.09;88.30
66119;DHT22;52912;48.564;9.302;2023-12-29T09:14:50;11.14;88.55
66119;DHT22;52912;48.564;9.302;2023-12-29T09:17:16;11.16;87.77
66119;DHT22;52912;48.564;9.302;2023-12-29T09:19:41;11.29;88.43
66119;DHT22;52912;48.564;9.302;2023-12-29T09:22:07;11.68;87.18
66119;DHT22;52912;48.564;9.302;2023-12-29T09:24:32;11.79;85.65
66119;DHT22;52912;48.564;9.302;2023-12-29T09:26:57;12.16;85.34
66119;DHT22;52912;48.564;9.302;2023-12-29T09:29:23;11.88;85.40
66119;DHT22;52912;48.564;9.302;2023-12-29T09:31:50;11.68;85.85
66119;DHT22;52912;48.564;9.302;2023-12-29T09:34:15;11.81;85.57
66119;DHT22;52912;48.564;9.302;2023-12-29T09:36:41;11.99;85.23
66119;DHT22;52912;48.564;9.302;2023-12-29T09:39:06;12.06;84.78
66119;DHT22;52912;48.564;9.302;2023-12-29T09:41:33;12.34;84.12
66119;DHT22;52912;48.564;9.302;2023-12-29T09:44:01;12.46;83.56
66119;DHT22;52912;48.564;9.302;2023-12-29T09:46:28;12.29;83.94
66119;DHT22;52912;48.564;9.302;2023-12-29T09:49:02;12.12;84.29
66119;DHT22;52912;48.564;9.302;2023-12-29T09:51:29;12.02;84.71
66119;DHT22;52912;48.564;9.302;2023-12-29T09:53:55;12.04;84.50
66119;DHT22;52912;48.564;9.302;2023-12-29T09:56:20;12.08;84.54
66119;DHT22;52912;48.564;9.302;2023-12-29T09:58:47;11.98;84.16
66119;DHT22;52912;48.564;9.302;2023-12-29T10:01:13;11.87;84.27
66119;DHT22;52912;48.564;9.302;2023-12-29T10:03:39;11.81;84.32
66119;DHT22;52912;48.564;9.302;2023-12-29T10:06:06;11.77;84.81
66119;DHT22;52912;48.564;9.302;2023-12-29T10:08:33;11.70;85.24
66119;DHT22;52912;48.564;9.302;2023-12-29T10:11:00;11.61;85.49
66119;DHT22;52912;48.564;9.302;2023-12-29T10:13:27;11.57;85.39
66119;DHT22;52912;48.564;9.302;2023-12-29T10:15:58;11.59;85.48
66119;DHT22;52912;48.564;9.302;2023-12-29T10:18:32;11.43;85.90
66119;DHT22;52912;48.564;9.302;2023-12-29T10:21:12;11.42;86.01
66119;DHT22;52912;48.564;9.302;2023-12-29T10:23:40;11.54;86.03
66119;DHT22;52912;48.564;9.302;2023-12-29T10:26:07;11.54;85.66
66119;DHT22;52912;48.564;9.302;2023-12-29T10:28:35;11.50;85.98
66119;DHT22;52912;48.564;9.302;2023-12-29T10:31:01;11.50;85.54
66119;DHT22;52912;48.564;9.302;2023-12-29T10:33:26;11.88;84.80
66119;DHT22;52912;48.564;9.302;2023-12-29T10:35:59;12.23;83.67
66119;DHT22;52912;48.564;9.302;2023-12-29T10:38:26;12.37;82.68
66119;DHT22;52912;48.564;9.302;2023-12-29T10:40:51;12.64;82.14
66119;DHT22;52912;48.564;9.302;2023-12-29T10:43:22;12.84;82.00
66119;DHT22;52912;48.564;9.302;2023-12-29T10:45:47;13.05;81.38
66119;DHT22;52912;48.564;9.302;2023-12-29T10:48:21;13.30;80.56
66119;DHT22;52912;48.564;9.302;2023-12-29T10:50:46;13.18;80.35
66119;DHT22;52912;48.564;9.302;2023-12-29T10:53:12;13.26;80.17
66119;DHT22;52912;48.564;9.302;2023-12-29T10:55:39;13.43;79.57
66119;DHT22;52912;48.564;9.302;2023-12-29T10:58:05;13.54;79.06
66119;DHT22;52912;48.564;9.302;2023-12-29T11:00:31;13.32;79.66
66119;DHT22;52912;48.564;9.302;2023-12-29T11:02:57;13.16;79.33
66119;DHT22;52912;48.564;9.302;2023-12-29T11:05:25;13.47;79.17
66119;DHT22;52912;48.564;9.302;2023-12-29T11:07:51;13.67;78.37
66119;DHT22;52912;48.564;9.302;2023-12-29T11:10:16;13.71;78.44
66119;DHT22;52912;48.564;9.302;2023-12-29T11:12:44;13.65;78.48
66119;DHT22;52912;48.564;9.302;2023-12-29T11:15:13;13.51;78.35
66119;DHT22;52912;48.564;9.302;2023-12-29T11:17:41;13.50;78.35
66119;DHT22;52912;48.564;9.302;2023-12-29T11:20:07;13.50;77.65
66119;DHT22;52912;48.564;9.302;2023-12-29T11:22:35;13.48;77.57
66119;DHT22;52912;48.564;9.302;2023-12-29T11:25:00;13.09;78.21
66119;DHT22;52912;48.564;9.302;2023-12-29T11:27:28;12.99;79.15
66119;DHT22;52912;48.564;9.302;2023-12-29T11:29:56;12.96;79.22
66119;DHT22;52912;48.564;9.302;2023-12-29T11:32:27;12.88;79.59
66119;DHT22;52912;48.564;9.302;2023-12-29T11:35:02;12.67;79.93
66119;DHT22;52912;48.564;9.302;2023-12-29T11:37:38;12.78;80.03
66119;DHT22;52912;48.564;9.302;2023-12-29T11:40:16;12.60;79.93
66119;DHT22;52912;48.564;9.302;2023-12-29T11:42:44;12.57;80.47
66119;DHT22;52912;48.564;9.302;2023-12-29T11:45:31;12.57;80.97
66119;DHT22;52912;48.564;9.302;2023-12-29T11:47:56;12.49;80.90
66119;DHT22;52912;48.564;9.302;2023-12-29T11:50:32;12.41;81.48
66119;DHT22;52912;48.564;9.302;2023-12-29T11:52:58;12.51;81.36
66119;DHT22;52912;48.564;9.302;2023-12-29T11:55:28;12.67;81.07
66119;DHT22;52912;48.564;9.302;2023-12-29T11:57:54;12.56;80.99
66119;DHT22;52912;48.564;9.302;2023-12-29T12:00:19;12.51;81.18
66119;DHT22;52912;48.564;9.302;2023-12-29T12:02:46;12.37;81.28
66119;DHT22;52912;48.564;9.302;2023-12-29T12:05:12;12.28;81.56
66119;DHT22;52912;48.564;9.302;2023-12-29T12:07:56;12.39;81.69
66119;DHT22;52912;48.564;9.302;2023-12-29T12:10:31;12.23;82.09
66119;DHT22;52912;48.564;9.302;2023-12-29T12:12:57;12.44;81.53
66119;DHT22;52912;48.564;9.302;2023-12-29T12:15:31;12.69;81.35
66119;DHT22;52912;48.564;9.302;2023-12-29T12:17:59;12.89;81.00
66119;DHT22;52912;48.564;9.302;2023-12-29T12:20:25;13.01;80.85
66119;DHT22;52912;48.564;9.302;2023-12-29T12:22:57;13.03;80.74
66119;DHT22;52912;48.564;9.302;2023-12-29T12:25:25;13.33;80.32
66119;DHT22;52912;48.564;9.302;2023-12-29T12:27:51;13.35;80.29
66119;DHT22;52912;48.564;9.302;2023-12-29T12:30:18;13.44;79.90
66119;DHT22;52912;48.564;9.302;2023-12-29T12:32:44;13.53;79.11
66119;DHT22;52912;48.564;9.302;2023-12-29T12:35:15;13.74;78.52
66119;DHT22;52912;48.564;9.302;2023-12-29T12:37:40;13.73;78.16
66119;DHT22;52912;48.564;9.302;2023-12-29T12:40:09;13.85;78.03
66119;DHT22;52912;48.564;9.302;2023-12-29T12:42:38;13.30;79.20
66119;DHT22;52912;48.564;9.302;2023-12-29T12:45:10;13.23;78.93
66119;DHT22;52912;48.564;9.302;2023-12-29T12:47:37;13.06;79.34
66119;DHT22;52912;48.564;9.302;2023-12-29T12:50:04;13.11;79.35
66119;DHT22;52912;48.564;9.302;2023-12-29T12:52:32;13.22;78.81
66119;DHT22;52912;48.564;9.302;2023-12-29T12:54:57;12.92;78.84
66119;DHT22;52912;48.564;9.302;2023-12-29T12:57:23;12.95;79.23
66119;DHT22;52912;48.564;9.302;2023-12-29T12:59:49;12.89;79.35
66119;DHT22;52912;48.564;9.302;2023-12-29T13:02:15;12.80;79.08
66119;DHT22;52912;48.564;9.302;2023-12-29T13:04:41;12.85;79.02
66119;DHT22;52912;48.564;9.302;2023-12-29T13:07:07;12.75;78.82
66119;DHT22;52912;48.564;9.302;2023-12-29T13:09:35;12.77;78.87
66119;DHT22;52912;48.564;9.302;2023-12-29T13:12:08;12.64;78.26
66119;DHT22;52912;48.564;9.302;2023-12-29T13:14:33;12.77;78.32
66119;DHT22;52912;48.564;9.302;2023-12-29T13:17:05;12.54;78.64
66119;DHT22;52912;48.564;9.302;2023-12-29T13:19:31;12.61;78.64
66119;DHT22;52912;48.564;9.302;2023-12-29T13:21:56;12.57;78.45
66119;DHT22;52912;48.564;9.302;2023-12-29T13:24:22;12.43;78.90
66119;DHT22;52912;48.564;9.302;2023-12-29T13:26:52;12.43;79.04
66119;DHT22;52912;48.564;9.302;2023-12-29T13:29:18;12.50;78.72
66119;DHT22;52912;48.564;9.302;2023-12-29T13:31:45;12.53;79.08
66119;DHT22;52912;48.564;9.302;2023-12-29T13:34:13;12.49;78.91
66119;DHT22;52912;48.564;9.302;2023-12-29T13:36:43;12.51;78.82
66119;DHT22;52912;48.564;9.302;2023-12-29T13:39:20;12.39;78.86
66119;DHT22;52912;48.564;9.302;2023-12-29T13:41:47;12.40;78.61
66119;DHT22;52912;48.564;9.302;2023-12-29T13:44:14;12.40;78.91
66119;DHT22;52912;48.564;9.302;2023-12-29T13:46:40;12.32;78.12
66119;DHT22;52912;48.564;9.302;2023-12-29T13:49:06;12.21;78.47
66119;DHT22;52912;48.564;9.302;2023-12-29T13:51:32;12.18;77.94
66119;DHT22;52912;48.564;9.302;2023-12-29T13:53:58;12.19;77.83
66119;DHT22;52912;48.564;9.302;2023-12-29T13:56:24;12.12;77.84
66119;DHT22;52912;48.564;9.302;2023-12-29T13:58:51;12.08;77.44
66119;DHT22;52912;48.564;9.302;2023-12-29T14:01:18;12.09;77.01
66119;DHT22;52912;48.564;9.302;2023-12-29T14:03:47;12.06;77.05
66119;DHT22;52912;48.564;9.302;2023-12-29T14:06:20;12.02;76.98
66119;DHT22;52912;48.564;9.302;2023-12-29T14:08:46;12.01;76.19
66119;DHT22;52912;48.564;9.302;2023-12-29T14:11:12;11.91;76.11
66119;DHT22;52912;48.564;9.302;2023-12-29T14:13:41;11.79;76.17
66119;DHT22;52912;48.564;9.302;2023-12-29T14:16:07;11.74;75.92
66119;DHT22;52912;48.564;9.302;2023-12-29T14:18:47;11.74;75.73
66119;DHT22;52912;48.564;9.302;2023-12-29T14:21:22;11.64;75.60
66119;DHT22;52912;48.564;9.302;2023-12-29T14:24:06;11.67;75.66
66119;DHT22;52912;48.564;9.302;2023-12-29T14:26:32;11.57;75.43
66119;DHT22;52912;48.564;9.302;2023-12-29T14:29:05;11.51;75.67
66119;DHT22;52912;48.564;9.302;2023-12-29T14:31:35;11.51;75.64
66119;DHT22;52912;48.564;9.302;2023-12-29T14:34:03;11.49;75.97
66119;DHT22;52912;48.564;9.302;2023-12-29T14:36:29;11.42;75.75
66119;DHT22;52912;48.564;9.302;2023-12-29T14:38:54;11.37;76.16
66119;DHT22;52912;48.564;9.302;2023-12-29T14:41:20;11.36;76.29
66119;DHT22;52912;48.564;9.302;2023-12-29T14:43:45;11.33;76.50
66119;DHT22;52912;48.564;9.302;2023-12-29T14:46:11;11.29;76.31
66119;DHT22;52912;48.564;9.302;2023-12-29T14:48:36;11.20;76.54
66119;DHT22;52912;48.564;9.302;2023-12-29T14:51:04;11.19;76.73
66119;DHT22;52912;48.564;9.302;2023-12-29T14:53:29;11.12;76.74
66119;DHT22;52912;48.564;9.302;2023-12-29T14:55:55;11.09;76.68
66119;DHT22;52912;48.564;9.302;2023-12-29T14:58:20;11.04;76.55
66119;DHT22;52912;48.564;9.302;2023-12-29T15:00:46;11.01;76.68
66119;DHT22;52912;48.564;9.302;2023-12-29T15:03:11;10.99;76.61
66119;DHT22;52912;48.564;9.302;2023-12-29T15:05:37;11.05;76.44
66119;DHT22;52912;48.564;9.302;2023-12-29T15:08:04;10.99;76.40
66119;DHT22;52912;48.564;9.302;2023-12-29T15:10:29;10.92;76.60
66119;DHT22;52912;48.564;9.302;2023-12-29T15:12:55;10.88;76.83
66119;DHT22;52912;48.564;9.302;2023-12-29T15:15:21;10.85;77.05
66119;DHT22;52912;48.564;9.302;2023-12-29T15:17:47;10.75;77.31
66119;DHT22;52912;48.564;9.302;2023-12-29T15:20:12;10.70;77.42
66119;DHT22;52912;48.564;9.302;2023-12-29T15:22:38;10.67;77.80
66119;DHT22;52912;48.564;9.302;2023-12-29T15:25:05;10.61;77.90
66119;DHT22;52912;48.564;9.302;2023-12-29T15:27:31;10.60;77.93
66119;DHT22;52912;48.564;9.302;2023-12-29T15:29:57;10.57;78.30
66119;DHT22;52912;48.564;9.302;2023-12-29T15:32:22;10.52;78.40